Time;durP1;ratioP1;P1;durP2;ratioP2;P2;SDS_P1;SDS_P2;PMS_P1;PMS_P2;Temp;Humidity;BMP_temperature;BMP_pressure;BME280_temperature;BME280_humidity;BME280_pressure;Samples;Min_cycle;Max_cycle;Signal;HPM_P1;HPM_P2
2023/05/07 05:13:12;;;;;;;9.37;8.40;;;10.90;99.90;;;;;;5137839;27;20280;-81
2023/05/07 05:21:58;;;;;;;10.50;8.47;;;11.40;99.90;;;;;;5136994;27;20271;-81
2023/05/07 05:28:37;;;;;;;10.27;7.97;;;11.70;99.90;;;;;;5137942;27;20294;-81
2023/05/07 05:35:16;;;;;;;8.03;6.17;;;12.10;99.90;;;;;;5137906;27;20267;-80
2023/05/07 05:42:02;;;;;;;7.50;6.27;;;12.30;99.90;;;;;;5138486;27;20615;-81
2023/05/07 05:47:14;;;;;;;8.53;6.07;;;;;;;;;;5137924;27;20281;-81
2023/05/07 05:52:58;;;;;;;8.07;5.30;;;13.10;99.90;;;;;;5138556;27;20271;-80
2023/05/07 05:57:22;;;;;;;8.30;5.80;;;;;;;;;;5138127;27;20298;-81
2023/05/07 06:02:11;;;;;;;9.13;4.80;;;13.70;99.90;;;;;;5139155;27;20277;-82
2023/05/07 06:07:00;;;;;;;4.87;4.47;;;;;;;;;;5139080;27;20275;-81
2023/05/07 06:10:49;;;;;;;5.17;4.40;;;;;;;;;;5139263;27;20267;-81
2023/05/07 06:14:56;;;;;;;7.57;4.10;;;;;;;;;;5138345;27;20272;-80
2023/05/07 06:18:41;;;;;;;3.23;2.93;;;14.00;99.90;;;;;;5139183;27;20283;-81
2023/05/07 06:22:43;;;;;;;3.20;2.80;;;14.40;99.90;;;;;;5139420;27;20473;-80
2023/05/07 06:26:43;;;;;;;6.17;2.80;;;14.50;99.90;;;;;;5139661;27;20627;-80
2023/05/07 06:30:40;;;;;;;7.07;3.10;;;14.40;99.90;;;;;;5139755;27;20264;-81
2023/05/07 06:34:40;;;;;;;3.17;2.87;;;14.90;99.90;;;;;;5138647;27;20275;-81
2023/05/07 06:38:37;;;;;;;4.47;3.07;;;14.80;99.90;;;;;;5137089;27;20287;-78
2023/05/07 06:42:33;;;;;;;3.30;3.00;;;15.30;99.90;;;;;;5136090;27;20272;-80
2023/05/07 06:46:33;;;;;;;4.57;3.03;;;15.40;99.90;;;;;;5115972;27;20272;-80
2023/05/07 06:50:31;;;;;;;3.38;3.08;;;15.30;99.90;;;;;;5134417;27;20346;-80
2023/05/07 06:54:33;;;;;;;3.67;2.57;;;15.70;99.90;;;;;;5136695;27;20267;-80
2023/05/07 06:58:28;;;;;;;3.57;2.57;;;16.10;99.90;;;;;;5137137;27;20763;-80
2023/05/07 07:02:27;;;;;;;2.90;2.30;;;16.30;99.90;;;;;;5137690;27;20281;-80
2023/05/07 07:07:30;;;;;;;2.80;2.60;;;16.50;99.90;;;;;;5135191;27;20302;-77
2023/05/07 07:09:56;;;;;;;4.00;2.40;;;;;;;;;;5133027;27;20251;-77
2023/05/07 07:12:22;;;;;;;3.67;2.30;;;16.60;99.90;;;;;;5131179;28;20168;-77
2023/05/07 07:14:48;;;;;;;6.90;2.53;;;16.80;99.90;;;;;;5133741;27;20163;-80
2023/05/07 07:17:13;;;;;;;2.80;2.27;;;17.00;99.90;;;;;;5132076;28;20201;-77
2023/05/07 07:19:39;;;;;;;2.40;2.20;;;17.20;99.90;;;;;;5132844;27;20170;-78
2023/05/07 07:22:05;;;;;;;2.90;2.30;;;17.30;99.90;;;;;;5132026;27;20272;-77
2023/05/07 07:24:33;;;;;;;2.50;2.30;;;17.30;99.90;;;;;;5132586;27;20253;-78
2023/05/07 07:26:59;;;;;;;2.87;2.40;;;17.40;99.90;;;;;;5134154;27;20192;-79
2023/05/07 07:29:26;;;;;;;3.47;2.30;;;17.40;99.90;;;;;;5134939;27;20265;-79
2023/05/07 07:31:52;;;;;;;2.30;2.07;;;17.70;99.90;;;;;;5135887;28;20254;-80
2023/05/07 07:34:17;;;;;;;2.10;1.90;;;18.10;99.90;;;;;;5135413;28;20237;-79
2023/05/07 07:36:43;;;;;;;3.87;2.27;;;18.10;99.90;;;;;;5136843;28;20699;-81
2023/05/07 07:39:09;;;;;;;2.70;2.00;;;18.40;99.90;;;;;;5133540;28;20200;-80
2023/05/07 07:41:35;;;;;;;3.93;2.27;;;;;;;;;;5133731;28;20268;-80
2023/05/07 07:44:01;;;;;;;1.87;1.77;;;20.80;99.90;;;;;;5134495;28;20603;-80
2023/05/07 07:46:26;;;;;;;2.03;1.83;;;18.80;99.90;;;;;;5133453;28;20224;-79
2023/05/07 07:48:52;;;;;;;4.53;2.17;;;18.90;99.90;;;;;;5133357;28;20231;-78
2023/05/07 07:51:18;;;;;;;2.30;2.00;;;19.00;99.90;;;;;;5131860;28;20247;-80
2023/05/07 07:53:43;;;;;;;3.90;2.17;;;19.20;99.90;;;;;;5134221;28;20164;-83
2023/05/07 07:56:11;;;;;;;3.23;2.10;;;19.50;99.90;;;;;;5134247;28;20189;-83
2023/05/07 07:58:37;;;;;;;2.27;1.83;;;19.90;99.90;;;;;;5133349;28;20206;-81
2023/05/07 08:01:03;;;;;;;2.77;2.00;;;20.50;99.90;;;;;;5135683;28;20171;-82
2023/05/07 08:03:32;;;;;;;3.10;2.17;;;21.30;99.90;;;;;;5134466;28;20178;-81
2023/05/07 08:05:57;;;;;;;2.80;1.90;;;22.10;99.90;;;;;;5133707;28;20229;-80
2023/05/07 08:08:23;;;;;;;2.17;1.60;;;22.40;99.90;;;;;;5136581;28;20199;-81
2023/05/07 08:10:50;;;;;;;4.07;1.80;;;22.60;99.90;;;;;;5134186;28;20195;-79
2023/05/07 08:13:16;;;;;;;1.77;1.67;;;22.60;99.90;;;;;;5132497;28;20186;-79
2023/05/07 08:15:41;;;;;;;1.70;1.50;;;23.20;99.90;;;;;;5131659;28;20232;-79
2023/05/07 08:18:07;;;;;;;2.73;1.73;;;23.30;99.90;;;;;;5128567;27;20202;-80
2023/05/07 08:20:35;;;;;;;3.60;1.80;;;23.50;99.90;;;;;;5141254;27;20243;-80
2023/05/07 08:23:01;;;;;;;1.80;1.50;;;23.70;99.90;;;;;;5140100;27;20190;-80
2023/05/07 08:25:27;;;;;;;1.60;1.50;;;24.00;99.90;;;;;;5139084;27;20202;-80
2023/05/07 08:27:52;;;;;;;2.23;1.50;;;24.30;99.90;;;;;;5140309;27;20191;-79
2023/05/07 08:30:18;;;;;;;2.07;1.87;;;24.20;99.90;;;;;;5139738;27;20190;-79
2023/05/07 08:32:44;;;;;;;1.97;1.70;;;23.80;99.90;;;;;;5138866;27;20179;-79
2023/05/07 08:35:09;;;;;;;3.30;1.90;;;23.40;99.90;;;;;;5140098;27;20167;-79
2023/05/07 08:37:35;;;;;;;1.90;1.57;;;23.30;99.90;;;;;;5140450;27;20192;-80
2023/05/07 08:40:01;;;;;;;3.27;1.90;;;23.40;99.90;;;;;;5139464;27;20281;-79
2023/05/07 08:42:28;;;;;;;2.43;1.80;;;23.30;99.90;;;;;;5139544;27;20172;-78
2023/05/07 08:44:59;;;;;;;3.43;1.60;;;23.00;99.90;;;;;;5139042;27;20621;-79
2023/05/07 08:47:33;;;;;;;3.03;1.90;;;23.00;99.90;;;;;;5137451;27;20216;-79
2023/05/07 08:49:59;;;;;;;3.33;1.57;;;23.40;99.90;;;;;;5138057;27;20195;-79
2023/05/07 08:52:26;;;;;;;1.60;1.50;;;23.70;99.90;;;;;;5139091;27;20173;-81
2023/05/07 08:54:52;;;;;;;4.00;1.60;;;23.70;99.90;;;;;;5137985;27;20189;-80
2023/05/07 08:57:19;;;;;;;2.13;1.70;;;23.90;99.90;;;;;;5137382;27;20206;-80
2023/05/07 08:59:45;;;;;;;1.90;1.80;;;23.40;99.90;;;;;;5137580;27;20184;-80
2023/05/07 09:02:11;;;;;;;2.20;1.80;;;22.70;99.90;;;;;;5138884;27;20192;-79
2023/05/07 09:04:37;;;;;;;2.00;1.90;;;22.20;99.90;;;;;;5139247;27;20176;-79
2023/05/07 09:07:05;;;;;;;2.23;1.80;;;22.10;99.90;;;;;;5136918;27;20207;-79
2023/05/07 09:09:32;;;;;;;1.57;1.40;;;22.00;99.90;;;;;;5138042;27;20167;-79
2023/05/07 09:12:01;;;;;;;2.03;1.50;;;22.10;99.90;;;;;;5138879;27;20491;-80
2023/05/07 09:14:27;;;;;;;4.93;1.73;;;22.40;99.90;;;;;;5137217;27;20210;-78
2023/05/07 09:16:53;;;;;;;2.97;1.90;;;22.80;99.90;;;;;;5138615;27;20170;-79
2023/05/07 09:19:24;;;;;;;2.73;1.40;;;23.30;99.90;;;;;;5137299;27;20212;-80
2023/05/07 09:21:49;;;;;;;1.80;1.60;;;23.70;99.90;;;;;;5136996;27;20174;-79
2023/05/07 09:24:16;;;;;;;2.37;1.70;;;23.90;99.90;;;;;;5138133;27;20534;-79
2023/05/07 09:26:42;;;;;;;2.07;1.70;;;23.90;99.90;;;;;;5137138;27;20332;-80
2023/05/07 09:29:09;;;;;;;2.83;1.33;;;23.70;99.90;;;;;;5135892;27;20227;-80
2023/05/07 09:31:38;;;;;;;3.67;1.77;;;23.80;99.90;;;;;;5137402;27;20605;-79
2023/05/07 09:34:07;;;;;;;2.53;1.60;;;24.00;99.90;;;;;;5139198;27;20176;-80
2023/05/07 09:36:36;;;;;;;4.40;1.50;;;23.90;99.90;;;;;;5137192;27;20256;-80
2023/05/07 09:39:02;;;;;;;9.43;1.90;;;23.80;99.90;;;;;;5136807;27;20773;-79
2023/05/07 09:41:32;;;;;;;2.90;1.60;;;23.90;99.90;;;;;;5138322;27;20175;-79
2023/05/07 09:43:58;;;;;;;3.20;1.60;;;24.10;99.90;;;;;;5137187;27;20179;-78
2023/05/07 09:46:29;;;;;;;3.27;1.50;;;24.20;99.90;;;;;;5137029;27;20267;-80
2023/05/07 09:48:57;;;;;;;4.50;1.60;;;24.30;99.90;;;;;;5136735;27;20197;-79
2023/05/07 09:51:33;;;;;;;3.23;1.57;;;24.40;99.90;;;;;;5136537;27;20209;-78
2023/05/07 09:54:02;;;;;;;4.00;1.57;;;24.20;99.90;;;;;;5137814;27;20154;-78
2023/05/07 09:56:30;;;;;;;2.53;1.40;;;24.40;99.90;;;;;;5139038;27;20173;-79
2023/05/07 09:59:00;;;;;;;2.93;1.50;;;24.40;99.90;;;;;;5139162;27;20196;-80
2023/05/07 10:01:26;;;;;;;2.27;1.30;;;24.30;99.90;;;;;;5136810;27;20170;-79
2023/05/07 10:03:53;;;;;;;1.97;1.40;;;24.40;99.90;;;;;;5135961;27;20201;-78
2023/05/07 10:06:20;;;;;;;1.70;1.33;;;24.70;99.90;;;;;;5139073;27;20237;-81
2023/05/07 10:08:46;;;;;;;4.37;1.60;;;25.00;99.90;;;;;;5143045;27;20229;-81
2023/05/07 10:11:12;;;;;;;2.80;1.33;;;25.20;99.90;;;;;;5142603;27;20198;-81
2023/05/07 10:13:38;;;;;;;1.73;1.63;;;25.50;99.90;;;;;;5143891;27;20502;-81
2023/05/07 10:16:05;;;;;;;4.07;2.80;;;25.60;99.90;;;;;;5144240;27;20194;-80
2023/05/07 10:18:32;;;;;;;2.37;1.50;;;25.20;99.50;;;;;;5143304;27;20284;-81
2023/05/07 10:21:15;;;;;;;1.50;1.30;;;25.20;99.80;;;;;;5145732;27;20194;-81
2023/05/07 10:23:45;;;;;;;2.60;1.20;;;25.00;99.20;;;;;;5144888;27;20169;-81
2023/05/07 10:26:12;;;;;;;3.67;1.87;;;24.90;99.90;;;;;;5143318;27;20197;-79
2023/05/07 10:28:41;;;;;;;2.57;1.67;;;24.60;99.90;;;;;;5141357;27;20265;-81
2023/05/07 10:31:25;;;;;;;3.43;1.67;;;24.60;99.90;;;;;;5144060;27;20171;-80
2023/05/07 10:33:55;;;;;;;1.80;1.60;;;24.70;99.90;;;;;;5138379;27;20181;-81
2023/05/07 10:36:22;;;;;;;3.77;1.83;;;24.90;99.90;;;;;;5138596;27;20188;-80
2023/05/07 10:38:47;;;;;;;1.73;1.10;;;24.90;99.20;;;;;;5140330;27;20187;-80
2023/05/07 10:41:15;;;;;;;3.57;1.60;;;24.60;99.90;;;;;;5138958;27;20257;-79
2023/05/07 10:43:45;;;;;;;4.57;1.73;;;24.60;99.90;;;;;;5138642;27;20351;-80
2023/05/07 10:46:15;;;;;;;2.80;1.77;;;24.90;99.50;;;;;;5139423;27;20262;-80
2023/05/07 10:49:00;;;;;;;5.13;1.77;;;24.70;98.80;;;;;;5140776;27;20214;-80
2023/05/07 10:51:26;;;;;;;2.10;1.40;;;24.80;99.90;;;;;;5140191;27;20174;-80
2023/05/07 10:54:10;;;;;;;2.33;1.60;;;24.50;99.90;;;;;;5137017;27;20693;-80
2023/05/07 10:56:42;;;;;;;5.00;1.33;;;23.90;99.80;;;;;;5136695;27;20232;-79
2023/05/07 10:59:41;;;;;;;2.53;1.63;;;23.40;99.30;;;;;;5134680;27;20288;-80
2023/05/07 11:02:09;;;;;;;1.60;1.40;;;23.10;99.90;;;;;;5123002;27;20196;-81
2023/05/07 11:04:35;;;;;;;1.93;1.53;;;22.90;99.90;;;;;;5137106;28;20181;-82
2023/05/07 11:07:08;;;;;;;2.03;1.40;;;22.70;99.00;;;;;;5137719;28;20207;-81
2023/05/07 11:09:51;;;;;;;3.83;1.50;;;22.30;99.90;;;;;;5137589;28;20179;-82
2023/05/07 11:12:35;;;;;;;2.40;1.67;;;22.00;99.90;;;;;;5138843;28;20170;-80
2023/05/07 11:15:05;;;;;;;2.60;1.30;;;21.70;99.90;;;;;;5140280;28;20722;-81
2023/05/07 11:17:34;;;;;;;1.70;1.40;;;21.60;99.90;;;;;;5139799;28;20224;-79
2023/05/07 11:20:04;;;;;;;2.10;1.23;;;21.50;99.90;;;;;;5137786;28;20206;-79
2023/05/07 11:22:32;;;;;;;1.87;1.37;;;21.40;99.40;;;;;;5140231;28;20184;-79
2023/05/07 11:25:03;;;;;;;2.53;1.50;;;21.40;99.90;;;;;;5137531;28;20175;-80
2023/05/07 11:27:29;;;;;;;1.87;1.53;;;21.40;99.90;;;;;;5135507;28;20749;-78
2023/05/07 11:29:56;;;;;;;4.17;2.90;;;21.40;99.90;;;;;;5137580;28;20254;-79
2023/05/07 11:32:26;;;;;;;3.10;2.03;;;21.40;99.90;;;;;;5136814;28;20186;-79
2023/05/07 11:34:56;;;;;;;2.87;1.40;;;21.50;99.90;;;;;;5137867;28;20584;-80
2023/05/07 11:37:23;;;;;;;2.37;1.67;;;21.60;99.90;;;;;;5138877;28;20252;-78
2023/05/07 11:39:54;;;;;;;1.80;1.40;;;21.90;99.90;;;;;;5139061;28;20179;-79
2023/05/07 11:42:33;;;;;;;3.77;2.23;;;22.30;99.50;;;;;;5138928;28;20183;-79
2023/05/07 11:45:00;;;;;;;1.30;1.20;;;22.70;99.90;;;;;;5142040;28;20163;-81
2023/05/07 11:47:26;;;;;;;1.70;1.50;;;23.00;98.80;;;;;;5141426;28;20234;-81
2023/05/07 11:49:53;;;;;;;2.17;1.50;;;23.30;98.20;;;;;;5140262;28;20190;-79
2023/05/07 11:52:22;;;;;;;2.20;1.60;;;23.30;96.90;;;;;;5142021;27;20171;-80
2023/05/07 11:54:57;;;;;;;3.07;1.37;;;23.40;98.10;;;;;;5146850;27;20171;-79
2023/05/07 11:57:24;;;;;;;2.10;1.43;;;23.70;97.30;;;;;;5145700;27;20203;-79
2023/05/07 11:59:57;;;;;;;4.00;1.77;;;23.80;97.20;;;;;;5145312;27;20176;-80
2023/05/07 12:02:24;;;;;;;4.00;1.63;;;23.60;98.80;;;;;;5145328;27;20181;-80
2023/05/07 12:04:50;;;;;;;2.73;1.67;;;23.30;98.40;;;;;;5142573;27;20214;-86
2023/05/07 12:07:17;;;;;;;2.10;1.90;;;22.90;97.80;;;;;;5142932;27;20214;-84
2023/05/07 12:09:44;;;;;;;3.53;2.13;;;22.70;99.20;;;;;;5145825;27;20172;-82
2023/05/07 12:12:10;;;;;;;1.83;1.63;;;22.60;98.40;;;;;;5142421;27;20177;-82
2023/05/07 12:14:44;;;;;;;2.80;1.70;;;22.60;99.90;;;;;;5144855;27;20211;-83
2023/05/07 12:17:11;;;;;;;2.17;1.97;;;22.60;97.70;;;;;;5146432;27;20173;-83
2023/05/07 12:19:38;;;;;;;3.50;2.37;;;22.50;99.90;;;;;;5149527;27;20750;-82
2023/05/07 12:22:05;;;;;;;4.30;2.30;;;22.40;99.90;;;;;;5141140;27;20186;-82
2023/05/07 12:24:47;;;;;;;3.60;2.00;;;22.40;99.90;;;;;;5140585;27;20189;-82
2023/05/07 12:27:14;;;;;;;3.43;2.20;;;22.40;99.90;;;;;;5138440;27;20300;-81
2023/05/07 12:29:44;;;;;;;2.67;1.90;;;22.40;99.90;;;;;;5141473;27;20194;-83
2023/05/07 12:32:14;;;;;;;2.10;1.90;;;22.80;99.90;;;;;;5140159;27;20217;-82
2023/05/07 12:34:40;;;;;;;3.10;1.70;;;23.70;99.90;;;;;;5139814;27;20280;-81
2023/05/07 12:37:06;;;;;;;3.67;2.43;;;24.60;99.90;;;;;;5140157;27;20212;-82
2023/05/07 12:39:32;;;;;;;2.43;1.90;;;25.80;99.40;;;;;;5140815;27;20183;-82
2023/05/07 12:41:59;;;;;;;1.97;1.77;;;26.20;98.70;;;;;;5138886;27;20642;-83
2023/05/07 12:44:32;;;;;;;4.63;2.17;;;26.40;96.20;;;;;;5139528;27;20174;-83
2023/05/07 12:47:01;;;;;;;2.40;1.73;;;26.10;96.30;;;;;;5139503;27;20288;-81
2023/05/07 12:49:26;;;;;;;2.23;1.53;;;25.80;95.60;;;;;;5139114;27;20172;-83
2023/05/07 12:51:54;;;;;;;2.47;1.60;;;25.00;98.10;;;;;;5139619;27;20624;-82
2023/05/07 12:54:33;;;;;;;3.07;1.60;;;24.40;97.70;;;;;;5138579;27;20212;-82
2023/05/07 12:57:09;;;;;;;2.20;1.40;;;23.90;96.90;;;;;;5139410;27;20240;-81
2023/05/07 12:59:41;;;;;;;4.30;2.00;;;23.80;99.70;;;;;;5139230;27;20177;-79
2023/05/07 13:02:07;;;;;;;4.30;2.17;;;23.70;98.20;;;;;;5138765;27;20230;-79
2023/05/07 13:04:33;;;;;;;4.03;1.60;;;23.20;97.50;;;;;;5138407;27;20662;-78
2023/05/07 13:07:00;;;;;;;2.20;1.67;;;22.90;99.90;;;;;;5138917;27;20261;-80
2023/05/07 13:09:26;;;;;;;3.13;1.97;;;22.60;99.90;;;;;;5140041;27;20660;-80
2023/05/07 13:11:52;;;;;;;7.53;1.90;;;22.40;99.90;;;;;;5139158;27;20169;-80
2023/05/07 13:14:20;;;;;;;2.13;1.70;;;22.30;99.90;;;;;;5138180;27;20178;-81
2023/05/07 13:16:45;;;;;;;5.47;1.93;;;22.20;99.90;;;;;;5138699;27;20263;-83
2023/05/07 13:19:11;;;;;;;5.43;2.23;;;22.00;99.90;;;;;;5140245;27;20238;-87
2023/05/07 13:21:36;;;;;;;2.13;1.63;;;21.90;99.90;;;;;;5142965;27;20179;-81
2023/05/07 13:24:02;;;;;;;3.67;2.13;;;21.70;99.90;;;;;;5140508;27;20260;-83
2023/05/07 13:26:31;;;;;;;3.23;1.80;;;21.60;99.90;;;;;;5138716;27;20299;-79
2023/05/07 13:28:57;;;;;;;4.10;1.70;;;21.30;99.90;;;;;;5137279;27;20191;-80
2023/05/07 13:31:23;;;;;;;2.47;1.70;;;21.10;99.90;;;;;;5139517;27;20502;-81
2023/05/07 13:33:48;;;;;;;2.43;1.67;;;20.80;99.90;;;;;;5137843;27;20175;-80
2023/05/07 13:36:14;;;;;;;2.27;2.07;;;20.70;99.90;;;;;;5137082;27;20640;-81
2023/05/07 13:38:40;;;;;;;5.33;2.20;;;20.60;99.90;;;;;;5138425;27;20193;-81
2023/05/07 13:41:06;;;;;;;2.77;2.50;;;20.30;99.90;;;;;;5138848;27;20175;-80
2023/05/07 13:43:33;;;;;;;6.03;3.87;;;20.20;99.90;;;;;;5138782;27;20175;-83
2023/05/07 13:45:59;;;;;;;4.20;2.10;;;20.00;99.90;;;;;;5139166;27;20222;-81
2023/05/07 13:48:25;;;;;;;6.30;2.00;;;19.90;99.90;;;;;;5138887;27;20182;-83
2023/05/07 13:50:51;;;;;;;3.10;1.70;;;19.70;99.90;;;;;;5139090;27;20415;-80
2023/05/07 13:53:18;;;;;;;2.10;1.60;;;19.60;99.90;;;;;;5137629;27;20540;-81
2023/05/07 13:55:44;;;;;;;2.77;1.63;;;19.40;99.90;;;;;;5138305;27;20178;-86
2023/05/07 13:58:10;;;;;;;2.40;1.80;;;19.30;99.90;;;;;;5137697;27;20540;-82
2023/05/07 14:00:36;;;;;;;2.40;2.03;;;19.20;99.90;;;;;;5138968;27;20174;-80
2023/05/07 14:03:04;;;;;;;3.77;2.03;;;19.10;99.90;;;;;;5137183;27;20173;-81
2023/05/07 14:05:30;;;;;;;3.03;2.10;;;19.10;99.90;;;;;;5138047;27;20187;-83
2023/05/07 14:11:05;;;;;;;2.10;1.90;;;19.30;99.90;;;;;;5136006;27;20274;-86
2023/05/07 14:13:31;;;;;;;3.03;2.10;;;19.70;99.90;;;;;;5116968;28;20182;-81
2023/05/07 14:15:57;;;;;;;3.43;2.27;;;20.00;99.90;;;;;;5134361;28;20168;-82
2023/05/07 14:18:23;;;;;;;3.63;2.20;;;20.30;99.90;;;;;;5124658;28;20200;-82
2023/05/07 14:20:50;;;;;;;3.03;2.13;;;20.50;99.90;;;;;;5133610;27;20177;-82
2023/05/07 14:23:17;;;;;;;3.40;2.40;;;20.70;99.90;;;;;;5134009;27;20194;-82
2023/05/07 14:25:43;;;;;;;3.73;2.40;;;21.00;99.90;;;;;;5135274;27;20530;-81
2023/05/07 14:28:09;;;;;;;3.00;2.20;;;21.30;99.90;;;;;;5134406;27;20320;-80
2023/05/07 14:30:34;;;;;;;3.20;2.00;;;21.40;99.90;;;;;;5135082;28;20285;-81
2023/05/07 14:33:00;;;;;;;2.33;2.13;;;21.50;99.90;;;;;;5134881;28;20220;-80
2023/05/07 14:35:26;;;;;;;3.20;2.20;;;21.40;99.90;;;;;;5136524;28;20179;-81
2023/05/07 14:37:51;;;;;;;2.27;1.80;;;21.40;99.90;;;;;;5133653;27;20191;-81
2023/05/07 14:40:17;;;;;;;4.40;1.80;;;21.40;99.90;;;;;;5133087;28;20585;-82
2023/05/07 14:42:43;;;;;;;3.23;1.70;;;21.40;99.90;;;;;;5133569;28;20178;-80
2023/05/07 14:45:09;;;;;;;3.50;1.90;;;21.60;99.90;;;;;;5134735;28;20246;-85
2023/05/07 14:47:35;;;;;;;1.93;1.67;;;22.00;99.90;;;;;;5133945;28;20212;-82
2023/05/07 14:50:01;;;;;;;4.77;1.80;;;22.90;99.90;;;;;;5133657;27;20203;-82
2023/05/07 14:52:27;;;;;;;3.60;1.90;;;24.00;99.90;;;;;;5133330;28;20648;-81
2023/05/07 14:54:52;;;;;;;2.03;1.80;;;24.80;99.90;;;;;;5134343;28;20186;-79
2023/05/07 14:57:19;;;;;;;3.63;1.80;;;25.20;99.90;;;;;;5136533;27;20631;-81
2023/05/07 14:59:45;;;;;;;4.63;1.70;;;25.60;99.90;;;;;;5134373;28;20288;-80
2023/05/07 15:02:11;;;;;;;2.30;1.60;;;25.80;99.90;;;;;;5133004;28;20190;-80
2023/05/07 15:04:45;;;;;;;2.23;1.70;;;25.90;98.80;;;;;;5134229;27;20179;-80
2023/05/07 15:07:17;;;;;;;2.43;1.63;;;25.60;98.40;;;;;;5134214;27;20183;-82
2023/05/07 15:09:43;;;;;;;2.10;1.47;;;25.60;99.10;;;;;;5132069;28;20222;-81
2023/05/07 15:12:08;;;;;;;3.57;1.80;;;25.70;99.10;;;;;;5132240;27;20571;-78
2023/05/07 15:14:34;;;;;;;3.93;1.60;;;26.20;97.70;;;;;;5133154;27;20166;-78
2023/05/07 15:17:00;;;;;;;3.93;1.53;;;26.20;99.50;;;;;;5131602;27;20172;-81
2023/05/07 15:19:28;;;;;;;3.43;1.50;;;26.40;99.10;;;;;;5131361;28;20201;-77
2023/05/07 15:21:57;;;;;;;3.63;1.47;;;26.60;96.50;;;;;;5118532;28;20184;-77
2023/05/07 15:24:23;;;;;;;4.73;1.70;;;26.60;93.80;;;;;;5117531;28;20167;-79
2023/05/07 15:26:52;;;;;;;2.63;1.53;;;26.10;96.10;;;;;;5117985;28;20226;-80
2023/05/07 15:29:18;;;;;;;3.80;1.80;;;26.00;95.50;;;;;;5117615;28;20581;-79
2023/05/07 15:31:44;;;;;;;2.00;1.30;;;25.60;94.00;;;;;;5117478;28;20684;-78
2023/05/07 15:34:09;;;;;;;2.40;1.60;;;24.90;95.30;;;;;;5117303;28;20204;-75
2023/05/07 15:36:35;;;;;;;3.07;1.70;;;23.90;97.60;;;;;;5123357;28;20259;-78
2023/05/07 15:39:02;;;;;;;1.80;1.70;;;23.70;98.20;;;;;;5120618;28;20231;-79
2023/05/07 15:41:28;;;;;;;5.87;1.83;;;24.30;97.60;;;;;;5118520;28;20184;-80
2023/05/07 15:43:53;;;;;;;3.77;1.73;;;24.90;97.10;;;;;;5118004;28;20186;-80
2023/05/07 15:46:21;;;;;;;4.23;1.87;;;25.30;96.20;;;;;;5121262;28;20178;-83
2023/05/07 15:48:47;;;;;;;2.70;1.50;;;25.50;94.60;;;;;;5117498;28;20197;-79
2023/05/07 15:51:13;;;;;;;3.87;1.77;;;25.40;95.40;;;;;;5119549;28;20168;-81
2023/05/07 15:53:39;;;;;;;2.23;1.70;;;25.40;94.20;;;;;;5117009;28;20171;-82
2023/05/07 15:56:06;;;;;;;1.97;1.43;;;25.10;94.50;;;;;;5118717;28;20666;-80
2023/05/07 15:58:32;;;;;;;1.80;1.57;;;24.10;94.40;;;;;;5118429;28;20530;-78
2023/05/07 16:00:59;;;;;;;1.80;1.50;;;23.00;96.40;;;;;;5117500;28;20196;-79
2023/05/07 16:03:28;;;;;;;1.77;1.40;;;22.10;97.70;;;;;;5117677;28;20197;-80
2023/05/07 16:05:59;;;;;;;1.50;1.40;;;21.40;97.50;;;;;;5117682;28;20625;-79
2023/05/07 16:08:25;;;;;;;2.97;1.30;;;20.90;98.90;;;;;;5117524;28;20190;-79
2023/05/07 16:10:51;;;;;;;1.90;1.70;;;20.60;99.80;;;;;;5117975;28;20211;-78
2023/05/07 16:13:19;;;;;;;4.20;1.87;;;20.40;99.90;;;;;;5118523;28;20179;-79
2023/05/07 16:15:48;;;;;;;3.60;1.50;;;20.10;99.90;;;;;;5116833;28;20533;-81
2023/05/07 16:18:16;;;;;;;3.77;1.70;;;19.90;99.90;;;;;;5118570;28;20196;-79
2023/05/07 16:20:42;;;;;;;1.60;1.50;;;19.80;99.90;;;;;;5117843;28;20250;-79
2023/05/07 16:33:13;;;;;;;3.70;2.17;;;19.50;99.90;;;;;;5133803;27;20275;-79
